Live Audio



buiten  Outside


The Shack  The Shack


Woonkamer  Woonkamer


The Shack 2  The Shack 2


Onweer radar Meer informatie blitzortung!


waarschuwing voor winterse neerslag Meer informatie rain snow radar


Bezoek onze andere website:

Template documentation
and downloads

And another site



Sneeuw/IJzel/Bevriezing van: 11-12-2017 17:00 tot: 23:59 waarschuwing voor: Sneeuw/IJzel/Bevriezing niveau: Rood info button
Gladheid door sneeuw, 5-10 cm, lokaal meerGroot gevaar op overlast en letsel door gladheid. Grote risico's voor weggebruikers. Kans op grootschalige ontregeling van het openbaar vervoer. Ga niet op reis als dat niet strikt noodzakelijk is. Volg weerberichten en waarschuwingen.

METAR rapporten vliegvelden

   
EHAM - Amsterdam/Schiph, Netherlands
Afstand tot: OZO 26 km
Gewijzigd: 11-12-2017 17:25
Small Hail, Sneeuw, Bewolking  
Small Hail, Sneeuw, Bewolking  
   Wind: NNO 29.6 km/h
Wind: NNO 29.6 km/h
Temperatuur: 0°C
Voelt als: -7°C
Dauwpunt: 0°C
Vochtigheid: 100%
Barometer: 980 hPa
Bewolking: Overcast
Zicht: 1 km
Bewolking: Gedeeltelijk bewolkt 121.9 m,
Bewolking 182.9 m
EHAM 111625Z 02016KT 350V070 0900 R18C/1100N R27/1700D R18R/1400N R06/1400N GS SN SCT004 OVC006 M00/M00 Q0980 R36C/411092 TEMPO 1500
EHRD - Rotterdam Airpor, Netherlands
Afstand tot: Z 50 km
Gewijzigd: 11-12-2017 17:25
Sneeuw, Grotendeels bewolkt  
Sneeuw, Grotendeels bewolkt  
   Wind: NNO 33.3 km/h
Wind: NNO 33.3 km/h
Temperatuur: 0°C
Voelt als: -7°C
Dauwpunt: 0°C
Vochtigheid: 100%
Barometer: 979 hPa
Bewolking: Mostly Cloudy
Zicht: 1 km
Bewolking: Licht bewolkt 91.4 m,
Grotendeels bewolkt 152.4 m,
Grotendeels bewolkt 213.4 m,
Licht bewolkt 457.2 m
EHRD 111625Z AUTO 02018KT 340V050 1200 R06/1300N SN FEW003 BKN005 BKN007 FEW015CB 00/M00 Q0979 R/SNOCLO TEMPO 3500
EHQE - Hoorn-A Sea, Netherlands
Afstand tot: NNW 60 km
Gewijzigd: 11-12-2017 17:25
Wat regen mogelijk, Sneeuw, Grotendeels bewolkt  
Wat regen mogelijk, Sneeuw, Grotendeels bewolkt  
   Wind: NNO 51.9 km/h
Wind: NNO 51.9 km/h
Temperatuur: 2°C
Voelt als: -6°C
Dauwpunt: 0°C
Vochtigheid: 87%
Barometer: 982 hPa
Bewolking: Mostly Cloudy
Zicht: 8 km
Bewolking: Licht bewolkt 213.4 m,
Gedeeltelijk bewolkt 274.3 m,
Grotendeels bewolkt 335.3 m,
Licht bewolkt 457.2 m
EHQE 111625Z AUTO 02028KT 8000 -RASN FEW007 SCT009 BKN011 FEW015CB 02/00 Q0982 W///H///
EHKD - De Kooy (navy), Netherlands
Afstand tot: NNO 61 km
Gewijzigd: 11-12-2017 17:41
Mogelijk wat sneeuw, Regen, Grotendeels bewolkt  
Mogelijk wat sneeuw, Regen, Grotendeels bewolkt  
   Wind: NO 25.9 km/h
Wind: NO 25.9 km/h
Temperatuur: 1°C
Voelt als: -4°C
Dauwpunt: 0°C
Vochtigheid: 93%
Barometer: 983 hPa
Bewolking: Mostly Cloudy
Zicht: 6 km
Bewolking: Licht bewolkt 182.9 m,
Gedeeltelijk bewolkt 304.8 m,
Grotendeels bewolkt 426.7 m,
Licht bewolkt 457.2 m
EHKD 111641Z AUTO 04014KT 010V070 6000 -SNRA FEW006 SCT010 BKN014 FEW015CB 01/00 Q0983 GRN
EHPG - P11-B Sea, Netherlands
Afstand tot: W 73 km
Gewijzigd: 11-12-2017 17:25
Wat regen mogelijk, Grotendeels bewolkt  
Wat regen mogelijk, Grotendeels bewolkt  
   Wind: NNO 63 km/h
Wind: NNO 63 km/h
Temperatuur: 3°C
Voelt als: -5°C
Dauwpunt: 1°C
Vochtigheid: 87%
Barometer: 982 hPa
Bewolking: Mostly Cloudy
Zicht: More then 10 km
Bewolking: Licht bewolkt 182.9 m,
Gedeeltelijk bewolkt 243.8 m,
Grotendeels bewolkt 274.3 m,
Licht bewolkt 457.2 m
EHPG 111625Z AUTO 03034KT 9999 -RA FEW006 SCT008 BKN009 FEW015CB 03/01 Q0982 W///H///
EHSC - Goeree Le Sea, Netherlands
Afstand tot: ZW 74 km
Gewijzigd: 11-12-2017 17:25
Motregen, Regen  
Motregen, Regen  
   Wind: NNO 64.8 km/h
Wind: NNO 64.8 km/h
Temperatuur: 3°C
Voelt als: -5°C
Dauwpunt: 2°C
Vochtigheid: 93%
Barometer: 979 hPa
Zicht: 6 km
EHSC 111625Z AUTO 03035KT 6000 DZRA ///////// 03/02 Q0979 W08/H20

Script ontwikkeld door  Saratoga-weather.org Aangepast voor de template door  Weerstation Leuven

U vindt ons ook hier:

Het Weer Aktueel

UK Metoffice

Weather Underground

AWEKAS

HAMweather, WeatherForYou, PWS Weather

Apparatuur in gebruik:

Weerstation
Davis VP2

Weerprogramma
Weather Display

Weercomputer
Paradigit

Webleverancier
Mijn provider

Davis VP2

Weather Display

Paradigit

Mijn provider